sensor_id;sensor_type;location;lat;lon;timestamp;P1;durP1;ratioP1;P2;durP2;ratioP2
6354;SDS011;3210;48.708;9.030;2024-01-30T00:01:47;7.57;;;4.60;;
6354;SDS011;3210;48.708;9.030;2024-01-30T00:04:30;4.23;;;3.80;;
6354;SDS011;3210;48.708;9.030;2024-01-30T00:07:39;7.03;;;4.73;;
6354;SDS011;3210;48.708;9.030;2024-01-30T00:13:28;4.70;;;3.27;;
6354;SDS011;3210;48.708;9.030;2024-01-30T00:16:24;3.53;;;2.27;;
6354;SDS011;3210;48.708;9.030;2024-01-30T00:19:30;5.27;;;2.90;;
6354;SDS011;3210;48.708;9.030;2024-01-30T00:22:01;5.70;;;2.80;;
6354;SDS011;3210;48.708;9.030;2024-01-30T00:24:39;5.00;;;4.03;;
6354;SDS011;3210;48.708;9.030;2024-01-30T00:27:33;6.73;;;4.17;;
6354;SDS011;3210;48.708;9.030;2024-01-30T00:33:21;6.27;;;4.37;;
6354;SDS011;3210;48.708;9.030;2024-01-30T00:36:08;4.57;;;3.50;;
6354;SDS011;3210;48.708;9.030;2024-01-30T00:38:49;5.73;;;3.60;;
6354;SDS011;3210;48.708;9.030;2024-01-30T00:41:34;9.73;;;4.43;;
6354;SDS011;3210;48.708;9.030;2024-01-30T00:44:16;7.80;;;4.07;;
6354;SDS011;3210;48.708;9.030;2024-01-30T00:56:20;4.57;;;4.03;;
6354;SDS011;3210;48.708;9.030;2024-01-30T00:59:10;4.90;;;4.00;;
6354;SDS011;3210;48.708;9.030;2024-01-30T01:01:57;6.30;;;3.67;;
6354;SDS011;3210;48.708;9.030;2024-01-30T01:04:39;6.13;;;3.70;;
6354;SDS011;3210;48.708;9.030;2024-01-30T01:07:32;6.70;;;4.57;;
6354;SDS011;3210;48.708;9.030;2024-01-30T01:13:01;8.03;;;4.50;;
6354;SDS011;3210;48.708;9.030;2024-01-30T01:15:35;4.40;;;3.90;;
6354;SDS011;3210;48.708;9.030;2024-01-30T01:18:10;4.27;;;3.17;;
6354;SDS011;3210;48.708;9.030;2024-01-30T01:20:41;5.13;;;3.30;;
6354;SDS011;3210;48.708;9.030;2024-01-30T01:23:12;6.43;;;3.70;;
6354;SDS011;3210;48.708;9.030;2024-01-30T01:25:56;6.20;;;3.43;;
6354;SDS011;3210;48.708;9.030;2024-01-30T01:28:33;3.10;;;2.80;;
6354;SDS011;3210;48.708;9.030;2024-01-30T01:31:15;4.40;;;3.40;;
6354;SDS011;3210;48.708;9.030;2024-01-30T01:33:44;5.80;;;3.43;;
6354;SDS011;3210;48.708;9.030;2024-01-30T01:36:22;4.90;;;3.90;;
6354;SDS011;3210;48.708;9.030;2024-01-30T01:42:03;7.10;;;3.80;;
6354;SDS011;3210;48.708;9.030;2024-01-30T01:50:48;5.90;;;3.60;;
6354;SDS011;3210;48.708;9.030;2024-01-30T01:53:16;4.60;;;3.30;;
6354;SDS011;3210;48.708;9.030;2024-01-30T01:55:59;7.40;;;4.10;;
6354;SDS011;3210;48.708;9.030;2024-01-30T01:58:48;6.00;;;3.03;;
6354;SDS011;3210;48.708;9.030;2024-01-30T02:01:16;5.47;;;3.90;;
6354;SDS011;3210;48.708;9.030;2024-01-30T02:03:58;4.20;;;3.40;;
6354;SDS011;3210;48.708;9.030;2024-01-30T02:06:39;6.60;;;3.87;;
6354;SDS011;3210;48.708;9.030;2024-01-30T02:09:15;4.50;;;3.43;;
6354;SDS011;3210;48.708;9.030;2024-01-30T02:11:43;6.20;;;4.20;;
6354;SDS011;3210;48.708;9.030;2024-01-30T02:14:21;4.00;;;3.23;;
6354;SDS011;3210;48.708;9.030;2024-01-30T02:17:12;3.50;;;3.10;;
6354;SDS011;3210;48.708;9.030;2024-01-30T02:19:43;6.20;;;3.50;;
6354;SDS011;3210;48.708;9.030;2024-01-30T02:25:19;4.70;;;3.93;;
6354;SDS011;3210;48.708;9.030;2024-01-30T02:27:51;6.57;;;3.27;;
6354;SDS011;3210;48.708;9.030;2024-01-30T02:30:29;6.43;;;3.53;;
6354;SDS011;3210;48.708;9.030;2024-01-30T02:33:18;5.93;;;3.10;;
6354;SDS011;3210;48.708;9.030;2024-01-30T02:35:47;4.00;;;3.60;;
6354;SDS011;3210;48.708;9.030;2024-01-30T02:38:36;6.03;;;3.50;;
6354;SDS011;3210;48.708;9.030;2024-01-30T02:41:11;5.00;;;3.67;;
6354;SDS011;3210;48.708;9.030;2024-01-30T02:43:45;4.43;;;4.00;;
6354;SDS011;3210;48.708;9.030;2024-01-30T02:46:15;6.70;;;3.10;;
6354;SDS011;3210;48.708;9.030;2024-01-30T02:48:46;5.10;;;3.20;;
6354;SDS011;3210;48.708;9.030;2024-01-30T02:51:17;6.13;;;3.50;;
6354;SDS011;3210;48.708;9.030;2024-01-30T02:56:59;4.63;;;3.67;;
6354;SDS011;3210;48.708;9.030;2024-01-30T02:59:41;6.20;;;3.73;;
6354;SDS011;3210;48.708;9.030;2024-01-30T03:05:15;3.40;;;3.00;;
6354;SDS011;3210;48.708;9.030;2024-01-30T03:08:00;5.17;;;3.30;;
6354;SDS011;3210;48.708;9.030;2024-01-30T03:10:31;6.00;;;3.90;;
6354;SDS011;3210;48.708;9.030;2024-01-30T03:13:27;3.83;;;3.33;;
6354;SDS011;3210;48.708;9.030;2024-01-30T03:16:01;3.93;;;2.97;;
6354;SDS011;3210;48.708;9.030;2024-01-30T03:19:08;4.33;;;3.20;;
6354;SDS011;3210;48.708;9.030;2024-01-30T03:21:50;3.23;;;2.93;;
6354;SDS011;3210;48.708;9.030;2024-01-30T03:24:35;5.10;;;3.33;;
6354;SDS011;3210;48.708;9.030;2024-01-30T03:33:36;3.27;;;2.97;;
6354;SDS011;3210;48.708;9.030;2024-01-30T03:36:20;8.20;;;3.23;;
6354;SDS011;3210;48.708;9.030;2024-01-30T03:38:58;3.17;;;2.87;;
6354;SDS011;3210;48.708;9.030;2024-01-30T03:41:29;4.07;;;3.67;;
6354;SDS011;3210;48.708;9.030;2024-01-30T03:44:02;3.50;;;2.97;;
6354;SDS011;3210;48.708;9.030;2024-01-30T03:46:35;3.43;;;3.00;;
6354;SDS011;3210;48.708;9.030;2024-01-30T03:52:09;3.33;;;3.03;;
6354;SDS011;3210;48.708;9.030;2024-01-30T03:54:44;4.60;;;3.57;;
6354;SDS011;3210;48.708;9.030;2024-01-30T03:57:15;6.40;;;2.70;;
6354;SDS011;3210;48.708;9.030;2024-01-30T03:59:46;4.37;;;3.30;;
6354;SDS011;3210;48.708;9.030;2024-01-30T04:02:35;7.80;;;2.97;;
6354;SDS011;3210;48.708;9.030;2024-01-30T04:08:09;3.53;;;3.20;;
6354;SDS011;3210;48.708;9.030;2024-01-30T04:10:48;5.70;;;3.60;;
6354;SDS011;3210;48.708;9.030;2024-01-30T04:13:35;7.20;;;3.53;;
6354;SDS011;3210;48.708;9.030;2024-01-30T04:16:20;5.83;;;3.73;;
6354;SDS011;3210;48.708;9.030;2024-01-30T04:18:54;6.00;;;3.23;;
6354;SDS011;3210;48.708;9.030;2024-01-30T04:21:52;5.83;;;3.47;;
6354;SDS011;3210;48.708;9.030;2024-01-30T04:24:32;6.03;;;3.53;;
6354;SDS011;3210;48.708;9.030;2024-01-30T04:27:02;5.13;;;3.03;;
6354;SDS011;3210;48.708;9.030;2024-01-30T04:29:50;5.40;;;4.00;;
6354;SDS011;3210;48.708;9.030;2024-01-30T04:32:25;3.00;;;2.77;;
6354;SDS011;3210;48.708;9.030;2024-01-30T04:34:57;5.80;;;3.40;;
6354;SDS011;3210;48.708;9.030;2024-01-30T04:37:41;5.07;;;3.87;;
6354;SDS011;3210;48.708;9.030;2024-01-30T04:40:15;5.50;;;3.87;;
6354;SDS011;3210;48.708;9.030;2024-01-30T04:42:43;5.07;;;3.80;;
6354;SDS011;3210;48.708;9.030;2024-01-30T04:45:13;4.80;;;4.10;;
6354;SDS011;3210;48.708;9.030;2024-01-30T04:47:45;6.97;;;3.33;;
6354;SDS011;3210;48.708;9.030;2024-01-30T04:50:33;11.10;;;3.77;;
6354;SDS011;3210;48.708;9.030;2024-01-30T04:53:20;4.00;;;3.50;;
6354;SDS011;3210;48.708;9.030;2024-01-30T04:55:49;11.17;;;3.53;;
6354;SDS011;3210;48.708;9.030;2024-01-30T04:58:21;4.03;;;2.80;;
6354;SDS011;3210;48.708;9.030;2024-01-30T05:01:18;11.80;;;3.73;;
6354;SDS011;3210;48.708;9.030;2024-01-30T05:03:55;4.37;;;3.50;;
6354;SDS011;3210;48.708;9.030;2024-01-30T05:06:29;4.47;;;3.63;;
6354;SDS011;3210;48.708;9.030;2024-01-30T05:12:15;3.87;;;3.57;;
6354;SDS011;3210;48.708;9.030;2024-01-30T05:14:46;5.70;;;3.17;;
6354;SDS011;3210;48.708;9.030;2024-01-30T05:17:15;3.07;;;2.87;;
6354;SDS011;3210;48.708;9.030;2024-01-30T05:19:52;3.00;;;2.70;;
6354;SDS011;3210;48.708;9.030;2024-01-30T05:22:22;3.83;;;3.00;;
6354;SDS011;3210;48.708;9.030;2024-01-30T05:24:57;5.10;;;3.63;;
6354;SDS011;3210;48.708;9.030;2024-01-30T05:27:33;7.47;;;4.40;;
6354;SDS011;3210;48.708;9.030;2024-01-30T05:30:27;6.47;;;4.70;;
6354;SDS011;3210;48.708;9.030;2024-01-30T05:33:14;8.17;;;3.50;;
6354;SDS011;3210;48.708;9.030;2024-01-30T05:38:41;8.20;;;5.43;;
6354;SDS011;3210;48.708;9.030;2024-01-30T05:41:53;5.10;;;4.13;;
6354;SDS011;3210;48.708;9.030;2024-01-30T05:44:56;5.23;;;4.67;;
6354;SDS011;3210;48.708;9.030;2024-01-30T05:47:45;6.43;;;4.87;;
6354;SDS011;3210;48.708;9.030;2024-01-30T05:50:19;7.33;;;4.20;;
6354;SDS011;3210;48.708;9.030;2024-01-30T05:52:56;5.13;;;4.13;;
6354;SDS011;3210;48.708;9.030;2024-01-30T05:55:38;7.10;;;4.53;;
6354;SDS011;3210;48.708;9.030;2024-01-30T05:58:35;9.40;;;3.63;;
6354;SDS011;3210;48.708;9.030;2024-01-30T06:01:16;4.17;;;3.63;;
6354;SDS011;3210;48.708;9.030;2024-01-30T06:03:59;6.70;;;4.10;;
6354;SDS011;3210;48.708;9.030;2024-01-30T06:06:35;7.23;;;4.57;;
6354;SDS011;3210;48.708;9.030;2024-01-30T06:09:21;4.07;;;3.13;;
6354;SDS011;3210;48.708;9.030;2024-01-30T06:12:08;4.73;;;3.63;;
6354;SDS011;3210;48.708;9.030;2024-01-30T06:14:46;4.57;;;2.93;;
6354;SDS011;3210;48.708;9.030;2024-01-30T06:17:27;10.13;;;4.40;;
6354;SDS011;3210;48.708;9.030;2024-01-30T06:19:57;4.33;;;3.43;;
6354;SDS011;3210;48.708;9.030;2024-01-30T06:22:27;3.90;;;3.60;;
6354;SDS011;3210;48.708;9.030;2024-01-30T06:25:09;5.97;;;4.40;;
6354;SDS011;3210;48.708;9.030;2024-01-30T06:27:53;3.87;;;3.20;;
6354;SDS011;3210;48.708;9.030;2024-01-30T06:30:43;3.40;;;3.10;;
6354;SDS011;3210;48.708;9.030;2024-01-30T06:33:11;4.27;;;3.70;;
6354;SDS011;3210;48.708;9.030;2024-01-30T06:35:54;4.07;;;3.60;;
6354;SDS011;3210;48.708;9.030;2024-01-30T06:38:26;4.93;;;3.77;;
6354;SDS011;3210;48.708;9.030;2024-01-30T06:40:54;4.40;;;4.00;;
6354;SDS011;3210;48.708;9.030;2024-01-30T06:43:36;7.23;;;3.43;;
6354;SDS011;3210;48.708;9.030;2024-01-30T06:46:16;5.90;;;3.97;;
6354;SDS011;3210;48.708;9.030;2024-01-30T06:48:43;3.93;;;3.53;;
6354;SDS011;3210;48.708;9.030;2024-01-30T06:51:11;5.13;;;3.67;;
6354;SDS011;3210;48.708;9.030;2024-01-30T06:53:41;3.13;;;2.83;;
6354;SDS011;3210;48.708;9.030;2024-01-30T06:56:28;3.50;;;3.03;;
6354;SDS011;3210;48.708;9.030;2024-01-30T06:58:56;4.80;;;3.07;;
6354;SDS011;3210;48.708;9.030;2024-01-30T07:01:29;3.83;;;3.40;;
6354;SDS011;3210;48.708;9.030;2024-01-30T07:03:58;4.50;;;3.17;;
6354;SDS011;3210;48.708;9.030;2024-01-30T07:06:39;5.40;;;3.83;;
6354;SDS011;3210;48.708;9.030;2024-01-30T07:09:08;5.40;;;4.07;;
6354;SDS011;3210;48.708;9.030;2024-01-30T07:11:43;3.30;;;3.00;;
6354;SDS011;3210;48.708;9.030;2024-01-30T07:14:15;6.17;;;4.00;;
6354;SDS011;3210;48.708;9.030;2024-01-30T07:19:48;4.47;;;3.43;;
6354;SDS011;3210;48.708;9.030;2024-01-30T07:22:36;8.37;;;3.60;;
6354;SDS011;3210;48.708;9.030;2024-01-30T07:25:07;5.40;;;3.30;;
6354;SDS011;3210;48.708;9.030;2024-01-30T07:39:02;3.70;;;3.20;;
6354;SDS011;3210;48.708;9.030;2024-01-30T07:47:50;4.17;;;3.70;;
6354;SDS011;3210;48.708;9.030;2024-01-30T07:50:46;4.60;;;3.43;;
6354;SDS011;3210;48.708;9.030;2024-01-30T07:53:24;4.07;;;3.10;;
6354;SDS011;3210;48.708;9.030;2024-01-30T07:56:10;4.70;;;3.53;;
6354;SDS011;3210;48.708;9.030;2024-01-30T07:58:39;10.60;;;4.40;;
6354;SDS011;3210;48.708;9.030;2024-01-30T08:01:20;9.10;;;5.10;;
6354;SDS011;3210;48.708;9.030;2024-01-30T08:04:01;14.80;;;4.50;;
6354;SDS011;3210;48.708;9.030;2024-01-30T08:32:34;8.23;;;3.93;;
6354;SDS011;3210;48.708;9.030;2024-01-30T08:38:46;7.60;;;4.63;;
6354;SDS011;3210;48.708;9.030;2024-01-30T08:41:59;17.07;;;4.73;;
6354;SDS011;3210;48.708;9.030;2024-01-30T09:08:36;9.50;;;5.20;;
6354;SDS011;3210;48.708;9.030;2024-01-30T09:11:11;10.43;;;5.60;;
6354;SDS011;3210;48.708;9.030;2024-01-30T09:13:54;11.87;;;5.07;;
6354;SDS011;3210;48.708;9.030;2024-01-30T09:16:27;11.10;;;5.70;;
6354;SDS011;3210;48.708;9.030;2024-01-30T09:18:56;17.33;;;5.40;;
6354;SDS011;3210;48.708;9.030;2024-01-30T09:21:44;15.43;;;5.17;;
6354;SDS011;3210;48.708;9.030;2024-01-30T09:24:31;7.57;;;4.60;;
6354;SDS011;3210;48.708;9.030;2024-01-30T09:26:59;24.60;;;4.43;;
6354;SDS011;3210;48.708;9.030;2024-01-30T09:29:40;9.20;;;4.73;;
6354;SDS011;3210;48.708;9.030;2024-01-30T09:32:23;13.20;;;4.57;;
6354;SDS011;3210;48.708;9.030;2024-01-30T09:34:51;9.63;;;5.50;;
6354;SDS011;3210;48.708;9.030;2024-01-30T09:37:24;15.33;;;5.50;;
6354;SDS011;3210;48.708;9.030;2024-01-30T09:39:55;8.87;;;3.97;;
6354;SDS011;3210;48.708;9.030;2024-01-30T09:42:27;11.07;;;4.87;;
6354;SDS011;3210;48.708;9.030;2024-01-30T09:45:34;18.57;;;6.43;;
6354;SDS011;3210;48.708;9.030;2024-01-30T09:48:11;14.90;;;6.13;;
6354;SDS011;3210;48.708;9.030;2024-01-30T09:50:41;14.67;;;5.00;;
6354;SDS011;3210;48.708;9.030;2024-01-30T09:53:23;17.43;;;6.10;;
6354;SDS011;3210;48.708;9.030;2024-01-30T09:56:13;18.43;;;5.73;;
6354;SDS011;3210;48.708;9.030;2024-01-30T09:59:05;15.33;;;5.93;;
6354;SDS011;3210;48.708;9.030;2024-01-30T10:12:50;8.93;;;4.17;;
6354;SDS011;3210;48.708;9.030;2024-01-30T10:15:22;11.80;;;4.03;;
6354;SDS011;3210;48.708;9.030;2024-01-30T10:18:19;8.50;;;4.37;;
6354;SDS011;3210;48.708;9.030;2024-01-30T10:20:55;5.03;;;3.50;;
6354;SDS011;3210;48.708;9.030;2024-01-30T10:23:49;7.93;;;4.60;;
6354;SDS011;3210;48.708;9.030;2024-01-30T10:26:45;7.13;;;4.97;;
6354;SDS011;3210;48.708;9.030;2024-01-30T10:32:41;9.10;;;3.80;;
6354;SDS011;3210;48.708;9.030;2024-01-30T10:35:19;9.60;;;5.03;;
6354;SDS011;3210;48.708;9.030;2024-01-30T10:38:11;5.03;;;4.07;;
6354;SDS011;3210;48.708;9.030;2024-01-30T10:40:47;13.87;;;4.53;;
6354;SDS011;3210;48.708;9.030;2024-01-30T10:43:19;9.00;;;4.17;;
6354;SDS011;3210;48.708;9.030;2024-01-30T10:46:16;4.07;;;3.67;;
6354;SDS011;3210;48.708;9.030;2024-01-30T10:49:04;9.37;;;4.07;;
6354;SDS011;3210;48.708;9.030;2024-01-30T10:51:51;9.70;;;3.60;;
6354;SDS011;3210;48.708;9.030;2024-01-30T10:54:31;22.83;;;4.07;;
6354;SDS011;3210;48.708;9.030;2024-01-30T10:57:30;11.30;;;3.80;;
6354;SDS011;3210;48.708;9.030;2024-01-30T11:00:30;8.60;;;3.77;;
6354;SDS011;3210;48.708;9.030;2024-01-30T11:03:18;6.80;;;4.43;;
6354;SDS011;3210;48.708;9.030;2024-01-30T11:05:50;8.20;;;3.90;;
6354;SDS011;3210;48.708;9.030;2024-01-30T11:09:04;8.80;;;3.67;;
6354;SDS011;3210;48.708;9.030;2024-01-30T11:11:50;13.90;;;3.97;;
6354;SDS011;3210;48.708;9.030;2024-01-30T11:14:38;14.73;;;4.23;;
6354;SDS011;3210;48.708;9.030;2024-01-30T11:17:10;10.20;;;4.30;;
6354;SDS011;3210;48.708;9.030;2024-01-30T11:22:42;5.50;;;3.00;;
6354;SDS011;3210;48.708;9.030;2024-01-30T11:25:28;4.73;;;2.90;;
6354;SDS011;3210;48.708;9.030;2024-01-30T11:28:06;10.73;;;4.00;;
6354;SDS011;3210;48.708;9.030;2024-01-30T11:30:48;9.10;;;3.43;;
6354;SDS011;3210;48.708;9.030;2024-01-30T11:33:57;10.30;;;3.73;;
6354;SDS011;3210;48.708;9.030;2024-01-30T11:39:52;9.27;;;3.43;;
6354;SDS011;3210;48.708;9.030;2024-01-30T11:42:57;5.60;;;3.10;;
6354;SDS011;3210;48.708;9.030;2024-01-30T11:45:56;4.53;;;2.90;;
6354;SDS011;3210;48.708;9.030;2024-01-30T11:48:49;6.20;;;3.93;;
6354;SDS011;3210;48.708;9.030;2024-01-30T11:51:22;8.93;;;3.07;;
6354;SDS011;3210;48.708;9.030;2024-01-30T11:53:56;5.50;;;2.70;;
6354;SDS011;3210;48.708;9.030;2024-01-30T11:56:38;13.10;;;4.20;;
6354;SDS011;3210;48.708;9.030;2024-01-30T11:59:33;11.33;;;3.90;;
6354;SDS011;3210;48.708;9.030;2024-01-30T12:02:18;9.10;;;3.63;;
6354;SDS011;3210;48.708;9.030;2024-01-30T12:05:21;11.70;;;3.07;;
6354;SDS011;3210;48.708;9.030;2024-01-30T12:08:14;9.53;;;3.13;;
6354;SDS011;3210;48.708;9.030;2024-01-30T12:13:56;7.90;;;4.80;;
6354;SDS011;3210;48.708;9.030;2024-01-30T12:16:47;7.03;;;2.67;;
6354;SDS011;3210;48.708;9.030;2024-01-30T12:20:01;7.73;;;3.13;;
6354;SDS011;3210;48.708;9.030;2024-01-30T12:22:52;2.37;;;2.00;;
6354;SDS011;3210;48.708;9.030;2024-01-30T12:25:50;9.50;;;2.63;;
6354;SDS011;3210;48.708;9.030;2024-01-30T12:29:07;4.67;;;2.50;;
6354;SDS011;3210;48.708;9.030;2024-01-30T12:32:06;15.03;;;3.03;;
6354;SDS011;3210;48.708;9.030;2024-01-30T12:35:13;4.30;;;2.73;;
6354;SDS011;3210;48.708;9.030;2024-01-30T12:38:07;7.33;;;2.60;;
6354;SDS011;3210;48.708;9.030;2024-01-30T12:41:11;4.57;;;2.53;;
6354;SDS011;3210;48.708;9.030;2024-01-30T12:54:05;3.40;;;2.40;;
6354;SDS011;3210;48.708;9.030;2024-01-30T12:58:28;3.97;;;2.00;;
6354;SDS011;3210;48.708;9.030;2024-01-30T12:59:59;12.23;;;2.60;;
6354;SDS011;3210;48.708;9.030;2024-01-30T13:03:04;4.33;;;2.63;;
6354;SDS011;3210;48.708;9.030;2024-01-30T13:40:39;5.83;;;2.27;;
6354;SDS011;3210;48.708;9.030;2024-01-30T13:43:42;5.53;;;3.17;;
6354;SDS011;3210;48.708;9.030;2024-01-30T13:46:37;7.27;;;2.97;;
6354;SDS011;3210;48.708;9.030;2024-01-30T13:49:34;6.43;;;2.53;;
6354;SDS011;3210;48.708;9.030;2024-01-30T13:53:13;6.00;;;2.37;;
6354;SDS011;3210;48.708;9.030;2024-01-30T13:58:59;10.10;;;2.47;;
6354;SDS011;3210;48.708;9.030;2024-01-30T14:01:38;6.80;;;2.80;;
6354;SDS011;3210;48.708;9.030;2024-01-30T14:05:06;4.80;;;2.10;;
6354;SDS011;3210;48.708;9.030;2024-01-30T14:07:52;5.40;;;1.77;;
6354;SDS011;3210;48.708;9.030;2024-01-30T14:13:15;6.87;;;2.00;;
6354;SDS011;3210;48.708;9.030;2024-01-30T14:22:31;5.33;;;3.37;;
6354;SDS011;3210;48.708;9.030;2024-01-30T14:25:12;4.90;;;2.17;;
6354;SDS011;3210;48.708;9.030;2024-01-30T14:30:55;4.43;;;2.37;;
6354;SDS011;3210;48.708;9.030;2024-01-30T14:33:45;3.13;;;1.80;;
6354;SDS011;3210;48.708;9.030;2024-01-30T14:42:56;5.33;;;2.73;;
6354;SDS011;3210;48.708;9.030;2024-01-30T14:45:45;5.20;;;3.00;;
6354;SDS011;3210;48.708;9.030;2024-01-30T14:49:04;2.80;;;2.30;;
6354;SDS011;3210;48.708;9.030;2024-01-30T14:51:52;5.53;;;3.40;;
6354;SDS011;3210;48.708;9.030;2024-01-30T15:07:22;4.70;;;2.87;;
6354;SDS011;3210;48.708;9.030;2024-01-30T15:13:52;4.70;;;2.53;;
6354;SDS011;3210;48.708;9.030;2024-01-30T15:16:42;9.50;;;4.33;;
6354;SDS011;3210;48.708;9.030;2024-01-30T15:19:42;10.73;;;3.13;;
6354;SDS011;3210;48.708;9.030;2024-01-30T15:25:21;7.30;;;2.57;;
6354;SDS011;3210;48.708;9.030;2024-01-30T15:28:33;5.40;;;2.00;;
6354;SDS011;3210;48.708;9.030;2024-01-30T15:30:56;4.03;;;2.30;;
6354;SDS011;3210;48.708;9.030;2024-01-30T15:33:31;7.60;;;2.70;;
6354;SDS011;3210;48.708;9.030;2024-01-30T15:35:59;2.90;;;2.30;;
6354;SDS011;3210;48.708;9.030;2024-01-30T15:38:34;14.07;;;2.53;;
6354;SDS011;3210;48.708;9.030;2024-01-30T15:41:03;2.57;;;2.20;;
6354;SDS011;3210;48.708;9.030;2024-01-30T15:43:56;5.60;;;2.17;;
6354;SDS011;3210;48.708;9.030;2024-01-30T15:50:31;5.10;;;2.80;;
6354;SDS011;3210;48.708;9.030;2024-01-30T15:59:54;12.77;;;6.10;;
6354;SDS011;3210;48.708;9.030;2024-01-30T16:03:00;3.97;;;3.20;;
6354;SDS011;3210;48.708;9.030;2024-01-30T16:05:33;4.30;;;3.67;;
6354;SDS011;3210;48.708;9.030;2024-01-30T16:08:30;18.73;;;2.37;;
6354;SDS011;3210;48.708;9.030;2024-01-30T18:11:01;6.60;;;2.77;;
6354;SDS011;3210;48.708;9.030;2024-01-30T18:11:53;8.47;;;3.50;;
6354;SDS011;3210;48.708;9.030;2024-01-30T18:15:00;16.00;;;2.90;;
6354;SDS011;3210;48.708;9.030;2024-01-30T18:17:45;5.23;;;3.00;;
6354;SDS011;3210;48.708;9.030;2024-01-30T18:20:31;13.43;;;3.90;;
6354;SDS011;3210;48.708;9.030;2024-01-30T18:23:15;6.10;;;2.97;;
6354;SDS011;3210;48.708;9.030;2024-01-30T18:25:48;11.80;;;3.63;;
6354;SDS011;3210;48.708;9.030;2024-01-30T18:28:24;13.03;;;2.53;;
6354;SDS011;3210;48.708;9.030;2024-01-30T18:31:21;9.53;;;3.80;;
6354;SDS011;3210;48.708;9.030;2024-01-30T18:34:09;6.50;;;3.53;;
6354;SDS011;3210;48.708;9.030;2024-01-30T18:36:56;11.80;;;4.20;;
6354;SDS011;3210;48.708;9.030;2024-01-30T18:43:07;12.53;;;3.80;;
6354;SDS011;3210;48.708;9.030;2024-01-30T18:45:40;8.23;;;2.87;;
6354;SDS011;3210;48.708;9.030;2024-01-30T18:48:09;10.23;;;3.73;;
6354;SDS011;3210;48.708;9.030;2024-01-30T18:50:43;11.90;;;4.40;;
6354;SDS011;3210;48.708;9.030;2024-01-30T18:53:57;6.83;;;3.70;;
6354;SDS011;3210;48.708;9.030;2024-01-30T18:56:42;11.37;;;3.90;;
6354;SDS011;3210;48.708;9.030;2024-01-30T19:00:09;5.20;;;4.03;;
6354;SDS011;3210;48.708;9.030;2024-01-30T19:02:41;11.30;;;4.73;;
6354;SDS011;3210;48.708;9.030;2024-01-30T19:05:14;6.57;;;4.57;;
6354;SDS011;3210;48.708;9.030;2024-01-30T19:07:55;5.27;;;3.50;;
6354;SDS011;3210;48.708;9.030;2024-01-30T19:10:25;6.60;;;4.77;;
6354;SDS011;3210;48.708;9.030;2024-01-30T19:13:00;8.17;;;3.43;;
6354;SDS011;3210;48.708;9.030;2024-01-30T19:15:31;6.40;;;4.00;;
6354;SDS011;3210;48.708;9.030;2024-01-30T19:18:01;6.70;;;2.93;;
6354;SDS011;3210;48.708;9.030;2024-01-30T19:20:28;6.07;;;4.00;;
6354;SDS011;3210;48.708;9.030;2024-01-30T19:22:55;8.80;;;4.37;;
6354;SDS011;3210;48.708;9.030;2024-01-30T19:25:25;8.80;;;4.10;;
6354;SDS011;3210;48.708;9.030;2024-01-30T19:27:54;17.27;;;8.73;;
6354;SDS011;3210;48.708;9.030;2024-01-30T19:30:24;12.87;;;7.53;;
6354;SDS011;3210;48.708;9.030;2024-01-30T19:32:52;10.07;;;5.90;;
6354;SDS011;3210;48.708;9.030;2024-01-30T19:35:19;8.70;;;5.30;;
6354;SDS011;3210;48.708;9.030;2024-01-30T19:37:46;9.07;;;5.60;;
6354;SDS011;3210;48.708;9.030;2024-01-30T19:40:14;9.60;;;6.47;;
6354;SDS011;3210;48.708;9.030;2024-01-30T19:42:43;15.03;;;6.83;;
6354;SDS011;3210;48.708;9.030;2024-01-30T19:45:10;11.10;;;5.57;;
6354;SDS011;3210;48.708;9.030;2024-01-30T19:47:38;10.20;;;5.93;;
6354;SDS011;3210;48.708;9.030;2024-01-30T19:50:08;9.67;;;5.33;;
6354;SDS011;3210;48.708;9.030;2024-01-30T19:52:35;9.37;;;5.80;;
6354;SDS011;3210;48.708;9.030;2024-01-30T19:55:05;8.63;;;4.40;;
6354;SDS011;3210;48.708;9.030;2024-01-30T19:57:33;9.97;;;5.30;;
6354;SDS011;3210;48.708;9.030;2024-01-30T20:00:00;10.03;;;5.50;;
6354;SDS011;3210;48.708;9.030;2024-01-30T20:02:28;8.47;;;4.43;;
6354;SDS011;3210;48.708;9.030;2024-01-30T20:05:00;8.87;;;6.67;;
6354;SDS011;3210;48.708;9.030;2024-01-30T20:07:32;11.37;;;5.17;;
6354;SDS011;3210;48.708;9.030;2024-01-30T20:09:59;13.43;;;4.87;;
6354;SDS011;3210;48.708;9.030;2024-01-30T20:12:26;9.00;;;4.80;;
6354;SDS011;3210;48.708;9.030;2024-01-30T20:14:55;7.03;;;4.63;;
6354;SDS011;3210;48.708;9.030;2024-01-30T20:17:26;9.97;;;4.87;;
6354;SDS011;3210;48.708;9.030;2024-01-30T20:19:58;6.60;;;4.80;;
6354;SDS011;3210;48.708;9.030;2024-01-30T20:22:58;8.00;;;5.10;;
6354;SDS011;3210;48.708;9.030;2024-01-30T20:25:25;9.70;;;4.63;;
6354;SDS011;3210;48.708;9.030;2024-01-30T20:27:52;11.40;;;4.50;;
6354;SDS011;3210;48.708;9.030;2024-01-30T20:30:26;9.57;;;4.33;;
6354;SDS011;3210;48.708;9.030;2024-01-30T20:32:55;11.37;;;4.73;;
6354;SDS011;3210;48.708;9.030;2024-01-30T20:35:22;7.63;;;4.50;;
6354;SDS011;3210;48.708;9.030;2024-01-30T20:37:55;7.97;;;4.17;;
6354;SDS011;3210;48.708;9.030;2024-01-30T20:40:24;8.00;;;4.40;;
6354;SDS011;3210;48.708;9.030;2024-01-30T20:43:00;7.70;;;4.37;;
6354;SDS011;3210;48.708;9.030;2024-01-30T20:45:28;9.17;;;4.63;;
6354;SDS011;3210;48.708;9.030;2024-01-30T20:47:58;6.23;;;4.50;;
6354;SDS011;3210;48.708;9.030;2024-01-30T20:50:30;9.10;;;5.07;;
6354;SDS011;3210;48.708;9.030;2024-01-30T20:53:06;4.23;;;3.60;;
6354;SDS011;3210;48.708;9.030;2024-01-30T20:55:43;8.33;;;5.17;;
6354;SDS011;3210;48.708;9.030;2024-01-30T20:58:18;8.00;;;4.50;;
6354;SDS011;3210;48.708;9.030;2024-01-30T21:01:05;8.40;;;5.30;;
6354;SDS011;3210;48.708;9.030;2024-01-30T21:03:48;7.50;;;5.00;;
6354;SDS011;3210;48.708;9.030;2024-01-30T21:06:25;10.60;;;6.50;;
6354;SDS011;3210;48.708;9.030;2024-01-30T21:12:27;7.60;;;5.03;;
6354;SDS011;3210;48.708;9.030;2024-01-30T21:15:09;7.87;;;4.43;;
6354;SDS011;3210;48.708;9.030;2024-01-30T21:17:38;10.00;;;4.97;;
6354;SDS011;3210;48.708;9.030;2024-01-30T21:20:10;4.33;;;3.73;;
6354;SDS011;3210;48.708;9.030;2024-01-30T21:22:40;7.40;;;4.30;;
6354;SDS011;3210;48.708;9.030;2024-01-30T21:25:09;10.67;;;4.50;;
6354;SDS011;3210;48.708;9.030;2024-01-30T21:27:37;4.33;;;3.87;;
6354;SDS011;3210;48.708;9.030;2024-01-30T21:30:06;4.80;;;3.70;;
6354;SDS011;3210;48.708;9.030;2024-01-30T21:32:35;7.17;;;4.80;;
6354;SDS011;3210;48.708;9.030;2024-01-30T21:35:03;8.83;;;4.57;;
6354;SDS011;3210;48.708;9.030;2024-01-30T21:37:32;5.83;;;3.83;;
6354;SDS011;3210;48.708;9.030;2024-01-30T21:40:01;5.63;;;3.67;;
6354;SDS011;3210;48.708;9.030;2024-01-30T21:42:30;9.03;;;4.50;;
6354;SDS011;3210;48.708;9.030;2024-01-30T21:44:58;7.80;;;3.70;;
6354;SDS011;3210;48.708;9.030;2024-01-30T21:47:35;5.37;;;3.60;;
6354;SDS011;3210;48.708;9.030;2024-01-30T21:50:01;7.40;;;4.80;;
6354;SDS011;3210;48.708;9.030;2024-01-30T21:52:28;12.93;;;4.03;;
6354;SDS011;3210;48.708;9.030;2024-01-30T21:54:55;5.33;;;4.03;;
6354;SDS011;3210;48.708;9.030;2024-01-30T21:57:23;6.70;;;3.70;;
6354;SDS011;3210;48.708;9.030;2024-01-30T21:59:52;7.70;;;5.00;;
6354;SDS011;3210;48.708;9.030;2024-01-30T22:02:33;4.80;;;3.67;;
6354;SDS011;3210;48.708;9.030;2024-01-30T22:05:16;4.50;;;3.77;;
6354;SDS011;3210;48.708;9.030;2024-01-30T22:07:51;5.00;;;4.00;;
6354;SDS011;3210;48.708;9.030;2024-01-30T22:10:34;5.30;;;3.73;;
6354;SDS011;3210;48.708;9.030;2024-01-30T22:13:18;9.83;;;3.70;;
6354;SDS011;3210;48.708;9.030;2024-01-30T22:16:02;9.87;;;4.33;;
6354;SDS011;3210;48.708;9.030;2024-01-30T22:18:37;7.70;;;4.30;;
6354;SDS011;3210;48.708;9.030;2024-01-30T22:21:13;8.60;;;4.60;;
6354;SDS011;3210;48.708;9.030;2024-01-30T22:23:43;4.73;;;3.50;;
6354;SDS011;3210;48.708;9.030;2024-01-30T22:26:41;5.73;;;3.80;;
6354;SDS011;3210;48.708;9.030;2024-01-30T22:29:09;5.40;;;4.23;;
6354;SDS011;3210;48.708;9.030;2024-01-30T22:31:36;5.67;;;3.47;;
6354;SDS011;3210;48.708;9.030;2024-01-30T22:34:17;9.43;;;4.50;;
6354;SDS011;3210;48.708;9.030;2024-01-30T22:36:48;8.40;;;3.63;;
6354;SDS011;3210;48.708;9.030;2024-01-30T22:39:34;5.70;;;4.23;;
6354;SDS011;3210;48.708;9.030;2024-01-30T22:42:11;4.20;;;3.80;;
6354;SDS011;3210;48.708;9.030;2024-01-30T22:44:39;5.47;;;3.83;;
6354;SDS011;3210;48.708;9.030;2024-01-30T22:47:11;4.90;;;3.30;;
6354;SDS011;3210;48.708;9.030;2024-01-30T22:49:39;5.53;;;4.80;;